createdAt,value
2019-02-21T00:01:04.097Z,9.32
2019-02-21T00:05:09.163Z,9.31
2019-02-21T00:07:04.102Z,9.31
2019-02-21T00:11:04.120Z,9.31
2019-02-21T00:13:04.134Z,9.28
2019-02-21T00:17:04.153Z,9.29
2019-02-21T00:19:04.160Z,9.29
2019-02-21T00:23:04.171Z,9.27
2019-02-21T00:25:04.201Z,9.28
2019-02-21T00:29:04.203Z,9.25
2019-02-21T00:31:04.185Z,9.25
2019-02-21T00:35:04.265Z,9.23
2019-02-21T00:37:04.231Z,9.20
2019-02-21T00:41:04.234Z,9.22
2019-02-21T00:43:04.216Z,9.21
2019-02-21T00:47:04.249Z,9.22
2019-02-21T00:49:04.241Z,9.18
2019-02-21T00:53:04.254Z,9.18
2019-02-21T00:55:04.301Z,9.17
2019-02-21T00:59:04.330Z,9.16
2019-02-21T01:01:04.276Z,9.16
2019-02-21T01:05:04.290Z,9.15
2019-02-21T01:07:04.283Z,9.15
2019-02-21T01:11:08.823Z,9.13
2019-02-21T01:13:04.284Z,9.14
2019-02-21T01:17:04.307Z,9.12
2019-02-21T01:19:04.312Z,9.11
2019-02-21T01:23:04.327Z,9.10
2019-02-21T01:25:04.323Z,9.09
2019-02-21T01:29:04.375Z,9.10
2019-02-21T01:31:04.336Z,9.09
2019-02-21T01:35:04.345Z,9.07
2019-02-21T01:37:04.374Z,9.08
2019-02-21T01:41:04.352Z,9.06
2019-02-21T01:43:09.009Z,9.06
2019-02-21T01:47:04.385Z,9.05
2019-02-21T01:49:04.383Z,9.05
2019-02-21T01:53:04.368Z,9.03
2019-02-21T01:55:04.415Z,9.02
2019-02-21T01:59:04.440Z,9.03
2019-02-21T02:01:08.706Z,9.01
2019-02-21T02:05:09.460Z,8.99
2019-02-21T02:09:04.452Z,9.01
2019-02-21T02:11:04.454Z,9.01
2019-02-21T02:15:04.500Z,8.98
2019-02-21T02:17:04.516Z,8.97
2019-02-21T02:21:04.540Z,8.96
2019-02-21T02:23:09.065Z,8.97
2019-02-21T02:27:04.556Z,8.94
2019-02-21T02:29:04.570Z,8.95
2019-02-21T02:33:04.569Z,8.94
2019-02-21T02:35:04.560Z,8.93
2019-02-21T02:39:04.586Z,8.91
2019-02-21T02:41:09.050Z,8.93
2019-02-21T02:45:04.602Z,8.90
2019-02-21T02:47:04.597Z,8.91
2019-02-21T02:51:04.612Z,8.91
2019-02-21T02:53:04.604Z,8.87
2019-02-21T02:57:04.642Z,8.88
2019-02-21T02:59:04.637Z,8.85
2019-02-21T03:03:04.687Z,8.84
2019-02-21T03:05:04.649Z,8.83
2019-02-21T03:09:04.688Z,8.83
2019-02-21T03:11:04.683Z,8.82
2019-02-21T03:15:04.674Z,8.81
2019-02-21T03:17:04.710Z,8.79
2019-02-21T03:21:04.689Z,8.79
2019-02-21T03:23:04.712Z,8.79
2019-02-21T03:27:04.723Z,8.76
2019-02-21T03:29:04.750Z,8.76
2019-02-21T03:33:04.915Z,8.77
2019-02-21T03:35:04.742Z,8.76
2019-02-21T03:39:09.969Z,8.73
2019-02-21T03:43:04.746Z,8.71
2019-02-21T03:45:04.739Z,8.70
2019-02-21T03:49:04.756Z,8.68
2019-02-21T03:51:04.752Z,8.69
2019-02-21T03:55:04.784Z,8.69
2019-02-21T03:57:09.448Z,8.68
2019-02-21T04:01:04.755Z,8.66
2019-02-21T04:03:04.789Z,8.66
2019-02-21T04:07:04.856Z,8.64
2019-02-21T04:09:04.769Z,8.63
2019-02-21T04:13:09.427Z,8.64
2019-02-21T04:15:04.780Z,8.62
2019-02-21T04:19:09.363Z,8.59
2019-02-21T04:21:04.788Z,8.60
2019-02-21T04:25:04.810Z,8.59
2019-02-21T04:27:04.811Z,8.60
2019-02-21T04:31:10.025Z,8.57
2019-02-21T04:33:04.812Z,8.57
2019-02-21T04:37:10.000Z,8.54
2019-02-21T04:39:04.826Z,8.56
2019-02-21T04:43:04.821Z,8.54
2019-02-21T04:45:04.826Z,8.53
2019-02-21T04:49:04.859Z,8.54
2019-02-21T04:51:04.838Z,8.52
2019-02-21T04:55:05.989Z,8.51
2019-02-21T04:57:04.841Z,8.50
2019-02-21T05:01:04.860Z,8.50
2019-02-21T05:03:04.854Z,8.50
2019-02-21T05:09:07.393Z,8.49
2019-02-21T05:11:04.868Z,8.49
2019-02-21T05:15:04.885Z,8.48
2019-02-21T05:17:09.213Z,8.48
2019-02-21T05:21:04.877Z,8.47
2019-02-21T05:23:04.864Z,8.45
2019-02-21T05:27:04.892Z,8.45
2019-02-21T05:29:04.888Z,8.45
2019-02-21T05:33:04.949Z,8.45
2019-02-21T05:35:04.973Z,8.43
2019-02-21T05:39:04.898Z,8.43
2019-02-21T05:41:04.916Z,8.44
2019-02-21T05:47:04.916Z,8.42
2019-02-21T05:49:04.909Z,8.42
2019-02-21T05:53:04.919Z,8.41
2019-02-21T05:55:04.922Z,8.40
2019-02-21T05:59:04.932Z,8.40
2019-02-21T06:01:05.004Z,8.41
2019-02-21T06:05:04.955Z,8.39
2019-02-21T06:07:04.934Z,8.40
2019-02-21T06:11:04.958Z,8.40
2019-02-21T06:13:04.976Z,8.39
2019-02-21T06:17:04.987Z,8.39
2019-02-21T06:19:04.951Z,8.38
2019-02-21T06:23:05.008Z,8.37
2019-02-21T06:25:04.989Z,8.37
2019-02-21T06:31:05.021Z,8.37
2019-02-21T06:33:05.592Z,8.36
2019-02-21T06:37:05.044Z,8.37
2019-02-21T06:39:05.029Z,8.36
2019-02-21T06:43:05.056Z,8.37
2019-02-21T06:45:05.085Z,8.37
2019-02-21T06:49:05.070Z,8.36
2019-02-21T06:51:05.059Z,8.35
2019-02-21T06:55:05.084Z,8.35
2019-02-21T06:57:07.372Z,8.34
2019-02-21T07:01:05.067Z,8.34
2019-02-21T07:03:15.230Z,8.36
2019-02-21T07:07:05.088Z,8.33
2019-02-21T07:09:05.087Z,8.33
2019-02-21T07:13:05.087Z,8.33
2019-02-21T07:15:05.106Z,8.34
2019-02-21T07:19:10.897Z,8.32
2019-02-21T07:21:05.094Z,8.32
2019-02-21T07:25:05.098Z,8.32
2019-02-21T07:27:05.097Z,8.32
2019-02-21T07:31:05.121Z,8.32
2019-02-21T07:33:05.092Z,8.32
2019-02-21T07:37:05.138Z,8.31
2019-02-21T07:39:16.524Z,8.32
2019-02-21T07:43:05.138Z,8.31
2019-02-21T07:45:05.255Z,8.31
2019-02-21T07:49:05.142Z,8.30
2019-02-21T07:51:05.163Z,8.29
2019-02-21T07:55:05.155Z,8.31
2019-02-21T07:57:05.185Z,8.31
2019-02-21T08:01:05.178Z,8.30
2019-02-21T08:03:05.193Z,8.31
2019-02-21T08:07:05.178Z,8.30
2019-02-21T08:09:05.202Z,8.31
2019-02-21T08:13:05.219Z,8.31
2019-02-21T08:15:11.872Z,8.30
2019-02-21T08:19:05.194Z,8.31
2019-02-21T08:21:05.228Z,8.31
2019-02-21T08:25:05.227Z,8.32
2019-02-21T08:27:05.209Z,8.31
2019-02-21T08:31:10.190Z,8.31
2019-02-21T08:33:05.241Z,8.32
2019-02-21T08:37:05.236Z,8.33
2019-02-21T08:39:05.212Z,8.31
2019-02-21T08:43:05.259Z,8.33
2019-02-21T08:45:05.243Z,8.33
2019-02-21T08:49:05.266Z,8.35
2019-02-21T08:51:06.233Z,8.33
2019-02-21T08:55:05.286Z,8.35
2019-02-21T08:57:05.254Z,8.36
2019-02-21T09:01:05.318Z,8.36
2019-02-21T09:03:10.296Z,8.36
2019-02-21T09:07:05.330Z,8.36
2019-02-21T09:09:09.927Z,8.37
2019-02-21T09:13:05.307Z,8.36
2019-02-21T09:15:05.339Z,8.37
2019-02-21T09:19:05.343Z,8.37
2019-02-21T09:21:05.317Z,8.37
2019-02-21T09:25:05.350Z,8.37
2019-02-21T09:27:05.342Z,8.36
2019-02-21T09:31:05.369Z,8.37
2019-02-21T09:33:14.793Z,8.37
2019-02-21T09:37:05.601Z,8.37
2019-02-21T09:39:05.407Z,8.37
2019-02-21T09:43:05.339Z,8.37
2019-02-21T09:45:05.345Z,8.38
2019-02-21T09:49:05.384Z,8.39
2019-02-21T09:51:05.395Z,8.38
2019-02-21T09:55:05.433Z,8.38
2019-02-21T09:57:12.979Z,8.38
2019-02-21T10:01:05.414Z,8.39
2019-02-21T10:03:05.426Z,8.41
2019-02-21T10:07:05.446Z,8.40
2019-02-21T10:09:05.601Z,8.41
2019-02-21T10:13:05.448Z,8.41
2019-02-21T10:15:10.063Z,8.42
2019-02-21T10:19:05.569Z,8.43
2019-02-21T10:21:05.445Z,8.44
2019-02-21T10:25:07.368Z,8.45
2019-02-21T10:27:05.465Z,8.45
2019-02-21T10:31:05.429Z,8.46
2019-02-21T10:33:09.849Z,8.48
2019-02-21T10:37:05.464Z,8.49
2019-02-21T10:39:05.467Z,8.49
2019-02-21T10:43:09.933Z,8.51
2019-02-21T10:45:05.498Z,8.50
2019-02-21T10:49:05.500Z,8.52
2019-02-21T10:51:05.481Z,8.51
2019-02-21T10:55:05.506Z,8.54
2019-02-21T10:57:05.517Z,8.54
2019-02-21T11:01:05.505Z,8.55
2019-02-21T11:03:05.499Z,8.57
2019-02-21T11:07:05.521Z,8.58
2019-02-21T11:09:05.537Z,8.60
2019-02-21T11:13:10.105Z,8.59
2019-02-21T11:15:05.528Z,8.62
2019-02-21T11:19:05.550Z,8.61
2019-02-21T11:21:05.528Z,8.64
2019-02-21T11:25:09.377Z,8.64
2019-02-21T11:27:05.548Z,8.65
2019-02-21T11:31:05.554Z,8.66
2019-02-21T11:33:05.562Z,8.67
2019-02-21T11:37:05.564Z,8.68
2019-02-21T11:39:05.558Z,8.69
2019-02-21T11:43:05.605Z,8.69
2019-02-21T11:45:10.196Z,8.70
2019-02-21T11:49:05.604Z,8.71
2019-02-21T11:51:07.476Z,8.73
2019-02-21T11:55:05.625Z,8.75
2019-02-21T11:57:05.626Z,8.75
2019-02-21T12:01:05.636Z,8.77
2019-02-21T12:03:05.631Z,8.78
2019-02-21T12:07:05.642Z,8.79
2019-02-21T12:09:05.672Z,8.80
2019-02-21T12:13:05.657Z,8.80
2019-02-21T12:15:05.667Z,8.81
2019-02-21T12:19:11.246Z,8.82
2019-02-21T12:21:05.669Z,8.84
2019-02-21T12:25:05.654Z,8.85
2019-02-21T12:27:12.221Z,8.86
2019-02-21T12:31:05.771Z,8.86
2019-02-21T12:33:10.096Z,8.87
2019-02-21T12:37:05.692Z,8.88
2019-02-21T12:39:11.262Z,8.88
2019-02-21T12:43:05.710Z,8.89
2019-02-21T12:45:05.706Z,8.90
2019-02-21T12:49:07.024Z,8.91
2019-02-21T12:51:05.739Z,8.91
2019-02-21T12:55:05.700Z,8.91
2019-02-21T12:57:05.757Z,8.92
2019-02-21T13:01:05.787Z,8.92
2019-02-21T13:03:05.783Z,8.93
2019-02-21T13:07:05.774Z,8.94
2019-02-21T13:09:11.018Z,8.93
2019-02-21T13:13:05.809Z,8.95
2019-02-21T13:15:06.784Z,8.95
2019-02-21T13:19:05.821Z,8.96
2019-02-21T13:21:05.801Z,8.97
2019-02-21T13:25:05.899Z,8.99
2019-02-21T13:27:05.833Z,8.98
2019-02-21T13:31:05.932Z,9.00
2019-02-21T13:33:05.916Z,8.99
2019-02-21T13:37:05.889Z,9.01
2019-02-21T13:39:05.883Z,8.99
2019-02-21T13:43:05.879Z,9.02
2019-02-21T13:45:05.882Z,9.01
2019-02-21T13:49:05.873Z,9.02
2019-02-21T13:51:05.912Z,9.03
2019-02-21T13:55:05.900Z,9.06
2019-02-21T13:57:05.918Z,9.07
2019-02-21T14:01:05.897Z,9.06
2019-02-21T14:03:05.918Z,9.07
2019-02-21T14:07:05.915Z,9.07
2019-02-21T14:09:11.944Z,9.07
2019-02-21T14:13:05.948Z,9.09
2019-02-21T14:15:05.954Z,9.08
2019-02-21T14:19:05.986Z,9.09
2019-02-21T14:21:05.977Z,9.10
2019-02-21T14:25:05.997Z,9.11
2019-02-21T14:27:08.642Z,9.11
2019-02-21T14:31:07.459Z,9.11
2019-02-21T14:33:06.038Z,9.11
2019-02-21T14:37:06.048Z,9.12
2019-02-21T14:39:06.037Z,9.13
2019-02-21T14:43:06.194Z,9.14
2019-02-21T14:45:06.065Z,9.14
2019-02-21T14:49:06.053Z,9.13
2019-02-21T14:51:10.425Z,9.14
2019-02-21T14:57:06.084Z,9.15
2019-02-21T14:59:06.089Z,9.15
2019-02-21T15:03:06.124Z,9.16
2019-02-21T15:05:06.087Z,9.16
2019-02-21T15:09:06.983Z,9.16
2019-02-21T15:11:06.186Z,9.16
2019-02-21T15:15:06.174Z,9.17
2019-02-21T15:17:06.151Z,9.18
2019-02-21T15:21:11.151Z,9.18
2019-02-21T15:23:11.155Z,9.18
2019-02-21T15:27:08.808Z,9.18
2019-02-21T15:29:11.231Z,9.18
2019-02-21T15:33:08.216Z,9.18
2019-02-21T15:35:06.178Z,9.18
2019-02-21T15:39:06.169Z,9.18
2019-02-21T15:41:06.191Z,9.18
2019-02-21T15:45:06.207Z,9.19
2019-02-21T15:47:06.216Z,9.21
2019-02-21T15:51:06.238Z,9.21
2019-02-21T15:53:06.379Z,9.20
2019-02-21T15:59:06.238Z,9.21
2019-02-21T16:01:06.249Z,9.21
2019-02-21T16:05:06.279Z,9.20
2019-02-21T16:07:06.266Z,9.21
2019-02-21T16:11:06.295Z,9.22
2019-02-21T16:13:06.332Z,9.21
2019-02-21T16:17:06.298Z,9.21
2019-02-21T16:19:06.326Z,9.22
2019-02-21T16:23:06.317Z,9.22
2019-02-21T16:25:10.089Z,9.22
2019-02-21T16:29:06.321Z,9.20
2019-02-21T16:31:06.356Z,9.21
2019-02-21T16:37:06.396Z,9.22
2019-02-21T16:39:06.330Z,9.22
2019-02-21T16:43:06.359Z,9.21
2019-02-21T16:45:11.319Z,9.23
2019-02-21T16:49:06.339Z,9.21
2019-02-21T16:51:06.347Z,9.21
2019-02-21T16:55:08.750Z,9.21
2019-02-21T16:57:10.924Z,9.21
2019-02-21T17:01:06.389Z,9.22
2019-02-21T17:03:06.370Z,9.23
2019-02-21T17:07:15.150Z,9.21
2019-02-21T17:09:06.361Z,9.21
2019-02-21T17:13:10.913Z,9.23
2019-02-21T17:15:06.388Z,9.21
2019-02-21T17:21:08.443Z,9.23
2019-02-21T17:23:06.370Z,9.21
2019-02-21T17:27:06.379Z,9.21
2019-02-21T17:31:06.394Z,9.20
2019-02-21T17:33:06.405Z,9.21
2019-02-21T17:39:06.432Z,9.23
2019-02-21T17:41:10.956Z,9.20
2019-02-21T17:45:06.442Z,9.21
2019-02-21T17:47:06.559Z,9.20
2019-02-21T17:51:11.652Z,9.20
2019-02-21T17:53:08.596Z,9.21
2019-02-21T17:57:06.443Z,9.20
2019-02-21T17:59:06.439Z,9.21
2019-02-21T18:03:06.442Z,9.20
2019-02-21T18:05:06.449Z,9.20
2019-02-21T18:09:06.506Z,9.21
2019-02-21T18:11:07.400Z,9.21
2019-02-21T18:15:06.470Z,9.20
2019-02-21T18:17:06.474Z,9.21
2019-02-21T18:21:08.284Z,9.21
2019-02-21T18:23:06.480Z,9.20
2019-02-21T18:27:08.609Z,9.19
2019-02-21T18:29:10.855Z,9.21
2019-02-21T18:33:06.482Z,9.19
2019-02-21T18:35:06.487Z,9.20
2019-02-21T18:39:06.468Z,9.19
2019-02-21T18:41:06.491Z,9.19
2019-02-21T18:45:07.009Z,9.19
2019-02-21T18:47:06.490Z,9.19
2019-02-21T18:51:06.494Z,9.20
2019-02-21T18:53:06.485Z,9.18
2019-02-21T18:57:06.508Z,9.19
2019-02-21T18:59:10.954Z,9.18
2019-02-21T19:03:06.492Z,9.18
2019-02-21T19:05:06.534Z,9.19
2019-02-21T19:09:11.018Z,9.18
2019-02-21T19:11:06.525Z,9.18
2019-02-21T19:15:06.532Z,9.18
2019-02-21T19:17:06.572Z,9.18
2019-02-21T19:21:06.585Z,9.17
2019-02-21T19:23:06.589Z,9.17
2019-02-21T19:27:06.597Z,9.17
2019-02-21T19:29:06.594Z,9.19
2019-02-21T19:33:06.594Z,9.17
2019-02-21T19:35:06.596Z,9.18
2019-02-21T19:39:06.610Z,9.18
2019-02-21T19:41:06.599Z,9.18
2019-02-21T19:45:06.610Z,9.18
2019-02-21T19:47:06.581Z,9.18
2019-02-21T19:51:06.606Z,9.17
2019-02-21T19:53:06.612Z,9.18
2019-02-21T19:57:06.618Z,9.17
2019-02-21T19:59:06.629Z,9.17
2019-02-21T20:03:06.627Z,9.18
2019-02-21T20:05:06.709Z,9.17
2019-02-21T20:09:06.627Z,9.18
2019-02-21T20:11:06.662Z,9.18
2019-02-21T20:15:08.957Z,9.17
2019-02-21T20:17:11.871Z,9.17
2019-02-21T20:21:06.643Z,9.17
2019-02-21T20:23:06.644Z,9.17
2019-02-21T20:27:06.649Z,9.18
2019-02-21T20:29:06.643Z,9.17
2019-02-21T20:33:06.709Z,9.17
2019-02-21T20:35:06.723Z,9.17
2019-02-21T20:39:06.655Z,9.17
2019-02-21T20:41:07.626Z,9.18
2019-02-21T20:45:06.679Z,9.18
2019-02-21T20:47:06.661Z,9.17
2019-02-21T20:51:06.700Z,9.17
2019-02-21T20:53:06.702Z,9.17
2019-02-21T20:57:06.699Z,9.17
2019-02-21T20:59:06.710Z,9.16
2019-02-21T21:03:06.722Z,9.17
2019-02-21T21:05:06.758Z,9.16
2019-02-21T21:09:06.713Z,9.17
2019-02-21T21:11:06.719Z,9.17
2019-02-21T21:15:09.336Z,9.17
2019-02-21T21:17:06.761Z,9.17
2019-02-21T21:21:06.758Z,9.16
2019-02-21T21:23:06.729Z,9.17
2019-02-21T21:27:06.762Z,9.17
2019-02-21T21:29:06.810Z,9.17
2019-02-21T21:33:06.811Z,9.17
2019-02-21T21:35:06.793Z,9.17
2019-02-21T21:39:06.824Z,9.17
2019-02-21T21:41:07.772Z,9.17
2019-02-21T21:45:06.851Z,9.17
2019-02-21T21:47:06.833Z,9.17
2019-02-21T21:51:06.864Z,9.16
2019-02-21T21:53:06.871Z,9.17
2019-02-21T21:57:11.539Z,9.17
2019-02-21T21:59:06.878Z,9.17
2019-02-21T22:03:07.821Z,9.16
2019-02-21T22:05:06.887Z,9.17
2019-02-21T22:09:12.105Z,9.17
2019-02-21T22:11:06.878Z,9.17
2019-02-21T22:15:11.362Z,9.17
2019-02-21T22:17:06.884Z,9.16
2019-02-21T22:21:06.893Z,9.18
2019-02-21T22:23:06.928Z,9.17
2019-02-21T22:27:07.037Z,9.17
2019-02-21T22:29:06.922Z,9.18
2019-02-21T22:33:06.893Z,9.17
2019-02-21T22:35:07.781Z,9.18
2019-02-21T22:39:15.735Z,9.17
2019-02-21T22:41:06.932Z,9.17
2019-02-21T22:45:07.158Z,9.16
2019-02-21T22:47:11.995Z,9.17
2019-02-21T22:51:06.912Z,9.17
2019-02-21T22:53:06.942Z,9.17
2019-02-21T22:57:11.423Z,9.17
2019-02-21T22:59:06.953Z,9.17
2019-02-21T23:03:06.959Z,9.17
2019-02-21T23:05:06.962Z,9.16
2019-02-21T23:09:06.973Z,9.17
2019-02-21T23:11:06.981Z,9.17
2019-02-21T23:15:06.982Z,9.17
2019-02-21T23:17:07.262Z,9.16
2019-02-21T23:21:11.648Z,9.18
2019-02-21T23:23:07.167Z,9.17
2019-02-21T23:27:07.119Z,9.16
2019-02-21T23:29:06.991Z,9.17
2019-02-21T23:33:07.863Z,9.16
2019-02-21T23:35:11.529Z,9.17
2019-02-21T23:39:07.179Z,9.18
2019-02-21T23:41:11.472Z,9.17
2019-02-21T23:45:09.234Z,9.17
2019-02-21T23:47:07.138Z,9.17
2019-02-21T23:51:07.024Z,9.16
2019-02-21T23:53:07.016Z,9.16
2019-02-21T23:57:09.746Z,9.17
2019-02-21T23:59:07.029Z,9.16
